Time;durP1;ratioP1;P1;durP2;ratioP2;P2;SDS_P1;SDS_P2;PMS_P1;PMS_P2;Temp;Humidity;BMP_temperature;BMP_pressure;BME280_temperature;BME280_humidity;BME280_pressure;Samples;Min_cycle;Max_cycle;Signal;HPM_P1;HPM_P2
2023/05/27 00:01:30;;;;;;;8.10;2.70;;;;;;;17.02;100.00;99175.84;5073697;28;20229;-80
2023/05/27 00:03:57;;;;;;;6.23;2.93;;;;;;;17.06;100.00;99164.22;5074039;28;20195;-80
2023/05/27 00:06:24;;;;;;;3.23;2.47;;;;;;;16.97;100.00;99166.75;5073862;28;20289;-80
2023/05/27 00:08:51;;;;;;;3.33;2.57;;;;;;;16.84;100.00;99156.00;5073573;28;20197;-80
2023/05/27 00:11:19;;;;;;;5.10;2.83;;;;;;;16.85;100.00;99155.03;5073161;28;20243;-80
2023/05/27 00:13:46;;;;;;;3.33;2.50;;;;;;;16.87;100.00;99150.53;5073654;28;20233;-80
2023/05/27 00:16:12;;;;;;;4.50;2.67;;;;;;;16.91;100.00;99146.69;5073661;28;20618;-80
2023/05/27 00:18:40;;;;;;;4.17;2.93;;;;;;;16.88;100.00;99152.16;5073863;28;20213;-80
2023/05/27 00:21:07;;;;;;;5.17;2.80;;;;;;;16.91;100.00;99157.03;5073389;28;20676;-80
2023/05/27 00:23:34;;;;;;;3.87;2.53;;;;;;;16.92;100.00;99147.50;5073228;28;20204;-80
2023/05/27 00:26:01;;;;;;;4.67;2.87;;;;;;;16.90;100.00;99150.25;5072824;28;20221;-80
2023/05/27 00:28:31;;;;;;;4.30;3.00;;;;;;;16.87;100.00;99145.38;5073189;28;20231;-80
2023/05/27 00:30:57;;;;;;;3.07;2.10;;;;;;;16.89;100.00;99148.59;5073393;28;20259;-80
2023/05/27 00:33:24;;;;;;;4.47;2.67;;;;;;;16.87;100.00;99145.38;5073099;28;20782;-80
2023/05/27 00:35:51;;;;;;;6.93;3.10;;;;;;;16.66;100.00;99148.22;5072632;28;20290;-80
2023/05/27 00:38:18;;;;;;;4.33;3.03;;;;;;;16.62;100.00;99141.75;5073224;28;20700;-80
2023/05/27 00:40:46;;;;;;;4.53;2.73;;;;;;;16.56;100.00;99141.53;5073157;28;20222;-80
2023/05/27 00:43:13;;;;;;;4.83;2.90;;;;;;;16.66;100.00;99137.09;5073269;28;20200;-80
2023/05/27 00:45:43;;;;;;;4.43;2.67;;;;;;;16.79;100.00;99132.41;5072890;28;20241;-80
2023/05/27 00:48:10;;;;;;;4.10;2.50;;;;;;;16.73;100.00;99127.81;5073419;28;20212;-80
2023/05/27 00:50:37;;;;;;;4.23;2.60;;;;;;;16.58;100.00;99134.44;5072849;28;20232;-80
2023/05/27 00:53:04;;;;;;;7.40;2.97;;;;;;;16.57;100.00;99127.66;5072612;28;20236;-80
2023/05/27 00:55:30;;;;;;;3.77;2.63;;;;;;;16.51;100.00;99127.28;5072720;28;20220;-80
2023/05/27 00:57:58;;;;;;;6.40;2.70;;;;;;;16.40;100.00;99127.50;5072743;28;20204;-80
2023/05/27 01:00:24;;;;;;;6.03;3.00;;;;;;;16.28;100.00;99129.47;5071923;28;20258;-80
2023/05/27 01:02:53;;;;;;;4.37;2.83;;;;;;;16.27;100.00;99125.28;5072496;28;20196;-80
2023/05/27 01:05:21;;;;;;;4.33;2.90;;;;;;;16.23;100.00;99121.38;5072949;28;20230;-80
2023/05/27 01:08:05;;;;;;;5.70;3.17;;;;;;;16.30;100.00;99121.59;5071915;28;20202;-80
2023/05/27 01:10:44;;;;;;;5.57;3.13;;;;;;;16.26;100.00;99115.09;5072640;28;20487;-80
2023/05/27 01:13:18;;;;;;;5.27;3.33;;;;;;;16.19;100.00;99114.88;5072258;28;20237;-80
2023/05/27 01:15:46;;;;;;;5.23;3.30;;;;;;;16.20;100.00;99115.69;5072157;28;20226;-80
2023/05/27 01:18:18;;;;;;;3.70;2.70;;;;;;;16.28;100.00;99120.94;5072424;28;20206;-80
2023/05/27 01:20:49;;;;;;;4.57;3.10;;;;;;;16.34;100.00;99122.94;5072223;28;20225;-80
2023/05/27 01:23:18;;;;;;;6.73;3.07;;;;;;;16.30;100.00;99125.00;5072245;28;20687;-80
2023/05/27 01:25:44;;;;;;;4.70;2.83;;;;;;;16.32;100.00;99124.84;5071962;28;20218;-80
2023/05/27 01:28:11;;;;;;;4.90;2.40;;;;;;;16.35;100.00;99119.41;5071927;28;20218;-80
2023/05/27 01:30:38;;;;;;;4.70;2.80;;;;;;;16.39;100.00;99127.66;5071537;28;20222;-80
2023/05/27 01:33:10;;;;;;;5.80;3.60;;;;;;;16.38;100.00;99119.09;5072133;28;20231;-80
2023/05/27 01:35:43;;;;;;;3.60;2.47;;;;;;;16.34;100.00;99112.59;5071825;28;20276;-80
2023/05/27 01:38:13;;;;;;;4.67;2.47;;;;;;;16.22;100.00;99118.94;5071998;28;20325;-80
2023/05/27 01:40:42;;;;;;;4.43;3.07;;;;;;;16.10;100.00;99120.91;5072087;28;20714;-80
2023/05/27 01:43:10;;;;;;;3.53;2.47;;;;;;;16.09;100.00;99123.66;5071925;28;20206;-80
2023/05/27 01:45:37;;;;;;;3.37;2.50;;;;;;;16.07;100.00;99131.53;5071090;28;20796;-80
2023/05/27 01:48:05;;;;;;;3.70;2.43;;;;;;;16.02;100.00;99119.06;5071816;28;20214;-80
2023/05/27 01:50:33;;;;;;;4.97;2.70;;;;;;;15.99;100.00;99114.19;5071631;28;20288;-80
2023/05/27 01:53:00;;;;;;;5.37;2.53;;;;;;;16.01;100.00;99108.91;5071147;28;20314;-79
2023/05/27 01:55:27;;;;;;;4.37;2.20;;;;;;;16.02;100.00;99103.56;5071222;28;20276;-79
2023/05/27 01:57:55;;;;;;;5.27;2.77;;;;;;;16.01;100.00;99116.63;5071374;28;20207;-80
2023/05/27 02:00:22;;;;;;;3.57;2.30;;;;;;;15.95;100.00;99118.03;5072017;28;20217;-80
2023/05/27 02:02:49;;;;;;;3.83;2.80;;;;;;;15.96;100.00;99117.06;5071127;28;20667;-80
2023/05/27 02:05:16;;;;;;;3.10;2.33;;;;;;;15.98;100.00;99117.72;5071373;28;20232;-80
2023/05/27 02:07:43;;;;;;;4.87;2.70;;;;;;;15.92;100.00;99118.31;5071175;28;20206;-79
2023/05/27 02:10:11;;;;;;;3.90;2.60;;;;;;;15.86;100.00;99113.72;5071334;28;20222;-79
2023/05/27 02:12:38;;;;;;;4.37;2.67;;;;;;;15.86;100.00;99113.72;5070420;28;20223;-80
2023/05/27 02:15:08;;;;;;;4.77;1.97;;;;;;;15.86;100.00;99113.72;5071081;28;20595;-79
2023/05/27 02:17:34;;;;;;;3.67;2.40;;;;;;;15.82;100.00;99118.38;5071366;28;20299;-79
2023/05/27 02:20:03;;;;;;;4.30;2.40;;;;;;;15.79;100.00;99123.78;5071302;28;20278;-79
2023/05/27 02:22:30;;;;;;;3.37;1.97;;;;;;;15.78;100.00;99118.78;5071246;28;20207;-79
2023/05/27 02:24:57;;;;;;;2.73;2.13;;;;;;;15.78;100.00;99127.31;5070904;28;20305;-79
2023/05/27 02:27:24;;;;;;;4.73;2.70;;;;;;;15.79;100.00;99123.78;5070766;28;20211;-79
2023/05/27 02:29:50;;;;;;;2.93;2.00;;;;;;;15.78;100.00;99126.53;5071210;28;20316;-79
2023/05/27 02:32:20;;;;;;;3.90;2.20;;;;;;;15.79;100.00;99125.56;5070753;28;20645;-79
2023/05/27 02:34:47;;;;;;;4.17;2.60;;;;;;;15.78;100.00;99118.78;5070945;28;20706;-79
2023/05/27 02:37:14;;;;;;;2.63;2.07;;;;;;;15.81;100.00;99121.06;5070914;28;20200;-79
2023/05/27 02:39:41;;;;;;;3.33;2.30;;;;;;;15.78;100.00;99121.38;5070954;28;20248;-79
2023/05/27 02:42:08;;;;;;;2.70;2.13;;;;;;;15.78;100.00;99126.53;5070717;28;20270;-79
2023/05/27 02:44:35;;;;;;;2.50;1.97;;;;;;;15.79;100.00;99128.13;5070582;28;20199;-79
2023/05/27 02:47:02;;;;;;;5.77;2.70;;;;;;;15.82;100.00;99133.84;5070366;28;20191;-79
2023/05/27 02:49:30;;;;;;;3.67;2.47;;;;;;;15.89;100.00;99128.09;5070568;28;20468;-79
2023/05/27 02:51:57;;;;;;;5.83;2.63;;;;;;;15.83;100.00;99134.66;5070779;28;20686;-79
2023/05/27 02:54:23;;;;;;;2.87;1.97;;;;;;;15.87;100.00;99140.31;5070298;28;20877;-79
2023/05/27 02:56:50;;;;;;;2.40;1.90;;;;;;;15.90;100.00;99125.38;5070533;28;20213;-79
2023/05/27 02:59:17;;;;;;;4.67;2.40;;;;;;;15.84;100.00;99131.09;5070304;28;20699;-79
2023/05/27 03:01:44;;;;;;;2.90;1.93;;;;;;;15.82;100.00;99127.84;5071274;28;20198;-79
2023/05/27 03:04:11;;;;;;;2.80;2.10;;;;;;;15.76;100.00;99128.41;5070710;28;20200;-79
2023/05/27 03:06:40;;;;;;;2.83;2.10;;;;;;;15.76;100.00;99129.22;5070382;28;20225;-79
2023/05/27 03:09:07;;;;;;;2.67;2.00;;;;;;;15.79;100.00;99133.28;5070702;28;20293;-79
2023/05/27 03:11:34;;;;;;;3.60;2.57;;;;;;;15.82;100.00;99139.00;5070408;28;20221;-79
2023/05/27 03:14:01;;;;;;;2.10;1.57;;;;;;;15.89;100.00;99149.53;5070486;28;20244;-79
2023/05/27 03:16:28;;;;;;;1.80;1.60;;;;;;;15.92;100.00;99143.28;5070424;28;20214;-79
2023/05/27 03:18:55;;;;;;;4.70;2.17;;;;;;;15.98;100.00;99148.66;5069988;28;20678;-79
2023/05/27 03:21:22;;;;;;;4.53;2.10;;;;;;;15.92;100.00;99154.41;5070226;28;20635;-79
2023/05/27 03:23:50;;;;;;;4.13;2.07;;;;;;;15.97;100.00;99157.38;5073312;28;20659;-79
2023/05/27 03:26:17;;;;;;;3.30;2.40;;;;;;;15.94;100.00;99149.09;5074169;28;20223;-79
2023/05/27 03:28:44;;;;;;;4.07;2.20;;;;;;;15.89;100.00;99148.72;5073720;28;20693;-79
2023/05/27 03:31:12;;;;;;;3.83;2.17;;;;;;;15.93;100.00;99148.28;5073978;28;20218;-79
2023/05/27 03:33:39;;;;;;;4.57;2.53;;;;;;;15.94;100.00;99152.50;5074259;28;20321;-79
2023/05/27 03:36:06;;;;;;;2.73;1.97;;;;;;;15.92;100.00;99149.25;5074070;28;20698;-79
2023/05/27 03:38:33;;;;;;;3.43;2.30;;;;;;;15.90;100.00;99161.47;5074278;28;20213;-79
2023/05/27 03:41:01;;;;;;;4.43;2.53;;;;;;;15.88;100.00;99160.78;5074044;28;20220;-79
2023/05/27 03:43:28;;;;;;;4.47;2.60;;;;;;;15.92;100.00;99144.09;5073828;28;20203;-79
2023/05/27 03:45:55;;;;;;;3.27;2.20;;;;;;;15.92;100.00;99153.59;5073600;28;20609;-79
2023/05/27 03:48:21;;;;;;;3.20;2.47;;;;;;;15.89;100.00;99153.88;5073895;28;20205;-79
2023/05/27 03:50:48;;;;;;;2.80;2.37;;;;;;;15.87;100.00;99156.59;5073899;28;20292;-79
2023/05/27 03:53:15;;;;;;;2.90;2.00;;;;;;;15.95;100.00;99159.28;5073554;28;20284;-79
2023/05/27 03:55:42;;;;;;;6.47;2.73;;;;;;;16.01;100.00;99158.69;5073529;28;20233;-79
2023/05/27 03:58:13;;;;;;;4.03;2.57;;;;;;;16.11;100.00;99163.00;5073946;28;20268;-80
2023/05/27 04:00:41;;;;;;;3.80;2.40;;;;;;;16.14;100.00;99157.53;5074381;28;20229;-80
2023/05/27 04:03:08;;;;;;;4.00;2.80;;;;;;;16.19;100.00;99160.50;5073755;28;20198;-80
2023/05/27 04:05:35;;;;;;;7.17;3.20;;;;;;;16.20;100.00;99167.28;5073340;28;20229;-80
2023/05/27 04:08:02;;;;;;;3.20;2.10;;;;;;;16.27;100.00;99174.31;5073726;28;20207;-79
2023/05/27 04:10:29;;;;;;;4.17;2.73;;;;;;;16.28;100.00;99169.94;5073290;28;20604;-80
2023/05/27 04:12:56;;;;;;;3.17;2.07;;;;;;;16.35;100.00;99167.59;5073832;28;20200;-80
2023/05/27 04:15:25;;;;;;;3.13;2.60;;;;;;;16.34;100.00;99174.53;5072965;28;20219;-80
2023/05/27 04:17:52;;;;;;;2.80;1.90;;;;;;;16.44;100.00;99172.72;5073593;28;20206;-80
2023/05/27 04:20:19;;;;;;;4.00;2.77;;;;;;;16.53;100.00;99174.41;5073224;28;20214;-80
2023/05/27 04:22:46;;;;;;;3.20;2.30;;;;;;;16.67;100.00;99178.25;5073187;28;20196;-80
2023/05/27 04:25:13;;;;;;;3.33;2.57;;;;;;;16.69;100.00;99178.09;5073427;28;20737;-80
2023/05/27 04:27:40;;;;;;;3.17;2.33;;;;;;;16.85;100.00;99178.28;5073091;28;20209;-80
2023/05/27 04:30:07;;;;;;;4.73;3.07;;;;;;;16.97;100.00;99177.06;5073181;28;20277;-80
2023/05/27 04:32:37;;;;;;;4.07;2.63;;;;;;;17.13;100.00;99181.56;5073771;28;20373;-80
2023/05/27 04:35:07;;;;;;;3.90;2.57;;;;;;;17.25;100.00;99189.88;5072826;28;20240;-80
2023/05/27 04:37:36;;;;;;;4.47;2.70;;;;;;;17.40;100.00;99193.53;5073118;28;20245;-80
2023/05/27 04:40:05;;;;;;;3.37;2.60;;;;;;;17.55;100.00;99180.06;5073276;28;20235;-79
2023/05/27 04:42:33;;;;;;;3.60;2.77;;;;;;;17.66;100.00;99182.38;5072963;28;20216;-79
2023/05/27 04:45:01;;;;;;;5.13;3.40;;;;;;;17.79;100.00;99182.78;5072823;28;20262;-79
2023/05/27 04:47:28;;;;;;;5.57;3.07;;;;;;;17.87;100.00;99179.44;5073002;28;20414;-79
2023/05/27 04:49:57;;;;;;;7.20;3.43;;;;;;;18.06;100.00;99178.34;5072529;28;20787;-79
2023/05/27 04:52:24;;;;;;;4.97;3.10;;;;;;;18.25;100.00;99178.09;5073026;28;20575;-79
2023/05/27 04:54:50;;;;;;;4.80;3.13;;;;;;;18.24;100.00;99181.66;5072372;28;20241;-79
2023/05/27 04:57:19;;;;;;;4.87;3.30;;;;;;;18.35;100.00;99177.16;5072545;28;20637;-79
2023/05/27 05:00:18;;;;;;;5.30;3.30;;;;;;;18.51;100.00;99177.19;5072478;28;20226;-79
2023/05/27 05:02:47;;;;;;;5.00;3.30;;;;;;;18.69;100.00;99179.66;5072978;28;20199;-79
2023/05/27 05:05:15;;;;;;;8.70;3.40;;;;;;;18.90;100.00;99185.19;5072924;28;20220;-79
2023/05/27 05:07:43;;;;;;;5.50;3.30;;;;;;;19.08;100.00;99190.22;5072733;28;20204;-79
2023/05/27 05:10:12;;;;;;;6.50;3.77;;;;;;;19.12;100.00;99191.50;5072557;28;20227;-79
2023/05/27 05:12:41;;;;;;;4.83;3.37;;;;;;;19.30;100.00;99187.91;5072577;28;20205;-79
2023/05/27 05:15:08;;;;;;;5.43;3.63;;;;;;;19.39;100.00;99192.13;5072571;28;20309;-79
2023/05/27 05:17:35;;;;;;;5.03;3.30;;;;;;;19.33;100.00;99203.16;5072521;28;20275;-79
2023/05/27 05:20:03;;;;;;;4.87;3.20;;;;;;;19.30;100.00;99198.28;5072622;28;20760;-79
2023/05/27 05:22:31;;;;;;;4.20;2.97;;;;;;;19.26;100.00;99197.81;5071817;28;20225;-80
2023/05/27 05:24:57;;;;;;;5.03;3.47;;;;;;;19.17;100.00;99194.41;5072169;28;20234;-80
2023/05/27 05:27:26;;;;;;;4.57;3.07;;;;;;;19.12;100.00;99196.69;5071359;28;21253;-80
2023/05/27 05:29:52;;;;;;;5.40;3.07;;;;;;;19.15;100.00;99204.13;5071267;28;20216;-80
2023/05/27 05:32:19;;;;;;;5.07;3.37;;;;;;;19.11;100.00;99195.06;5071302;28;20263;-80
2023/05/27 05:34:46;;;;;;;6.03;3.17;;;;;;;19.46;100.00;99198.28;5071402;28;20670;-80
2023/05/27 05:37:13;;;;;;;4.03;3.10;;;;;;;19.68;100.00;99210.56;5071568;28;20210;-79
2023/05/27 05:39:41;;;;;;;4.97;3.50;;;;;;;19.80;100.00;99210.19;5071515;28;20226;-80
2023/05/27 05:42:08;;;;;;;5.10;3.93;;;;;;;19.73;100.00;99214.44;5071461;28;20202;-80
2023/05/27 05:44:35;;;;;;;5.87;3.60;;;;;;;19.61;100.00;99217.38;5071610;28;20212;-80
2023/05/27 05:47:02;;;;;;;5.77;3.70;;;;;;;19.58;100.00;99222.88;5071243;28;20233;-80
2023/05/27 05:49:29;;;;;;;5.63;3.53;;;;;;;19.49;100.00;99223.88;5071364;28;20202;-79
2023/05/27 05:51:55;;;;;;;6.83;3.50;;;;;;;19.61;100.00;99222.53;5071899;28;20212;-80
2023/05/27 05:54:22;;;;;;;7.07;3.83;;;;;;;19.64;100.00;99222.22;5071210;28;20736;-80
2023/05/27 05:56:50;;;;;;;5.80;3.33;;;;;;;19.63;100.00;99230.97;5071511;28;20230;-80
2023/05/27 05:59:17;;;;;;;6.67;3.90;;;;;;;19.54;100.00;99231.16;5071266;28;20208;-80
2023/05/27 06:01:44;;;;;;;6.43;3.87;;;;;;;19.66;100.00;99233.28;5071402;28;20202;-80
2023/05/27 06:04:11;;;;;;;8.00;3.70;;;;;;;19.80;100.00;99226.56;5071398;28;20212;-80
2023/05/27 06:06:39;;;;;;;5.90;4.30;;;;;;;19.86;100.00;99231.09;5071675;28;20731;-80
2023/05/27 06:09:06;;;;;;;5.23;3.83;;;;;;;19.63;100.00;99230.97;5071023;28;20236;-80
2023/05/27 06:11:34;;;;;;;6.37;3.67;;;;;;;19.64;100.00;99235.19;5070752;28;20231;-81
2023/05/27 06:14:02;;;;;;;4.97;3.80;;;;;;;19.56;100.00;99232.59;5071436;28;20337;-80
2023/05/27 06:16:29;;;;;;;6.27;3.77;;;;;;;19.42;100.00;99233.28;5071316;28;20229;-81
2023/05/27 06:18:56;;;;;;;5.23;3.67;;;;;;;19.55;100.00;99228.41;5071555;28;20208;-80
2023/05/27 06:21:23;;;;;;;5.37;3.50;;;;;;;19.60;100.00;99231.28;5071157;28;20228;-80
2023/05/27 06:23:49;;;;;;;8.13;4.83;;;;;;;19.56;100.00;99235.19;5071194;28;20213;-80
2023/05/27 06:26:16;;;;;;;6.37;3.90;;;;;;;19.53;100.00;99235.53;5070848;28;20606;-81
2023/05/27 06:28:43;;;;;;;5.20;3.50;;;;;;;19.44;100.00;99239.91;5071227;28;20217;-80
2023/05/27 06:31:11;;;;;;;6.23;4.00;;;;;;;19.38;100.00;99239.75;5070965;28;20236;-81
2023/05/27 06:33:38;;;;;;;6.10;4.30;;;;;;;19.35;100.00;99242.69;5071028;28;20216;-81
2023/05/27 06:36:05;;;;;;;6.70;4.30;;;;;;;19.30;100.00;99244.94;5071188;28;20225;-81
2023/05/27 06:38:32;;;;;;;5.77;3.83;;;;;;;19.23;100.00;99245.59;5070816;28;20198;-80
2023/05/27 06:40:59;;;;;;;7.03;4.10;;;;;;;19.28;100.00;99247.69;5070607;28;20276;-81
2023/05/27 06:43:26;;;;;;;7.47;4.40;;;;;;;19.32;100.00;99243.00;5070619;28;20227;-81
2023/05/27 06:45:53;;;;;;;10.27;4.50;;;;;;;19.34;100.00;99246.22;5070457;28;20224;-81
2023/05/27 06:48:21;;;;;;;7.03;4.47;;;;;;;19.42;100.00;99254.00;5070893;28;20202;-81
2023/05/27 06:50:48;;;;;;;8.97;4.90;;;;;;;19.43;100.00;99253.03;5070328;28;20226;-81
2023/05/27 06:53:15;;;;;;;7.30;4.93;;;;;;;19.35;100.00;99247.88;5070808;28;20211;-81
2023/05/27 06:55:42;;;;;;;9.23;4.80;;;;;;;19.36;100.00;99244.28;5069715;28;20315;-81
2023/05/27 06:58:09;;;;;;;11.83;5.23;;;;;;;19.40;100.00;99251.59;5072597;28;20205;-80
2023/05/27 07:00:36;;;;;;;9.23;5.13;;;;;;;19.47;100.00;99251.75;5074406;28;20231;-81
2023/05/27 07:03:03;;;;;;;10.63;4.90;;;;;;;19.50;100.00;99250.63;5074233;28;20200;-81
2023/05/27 07:05:31;;;;;;;9.27;5.17;;;;;;;19.58;100.00;99254.00;5074719;28;20215;-81
2023/05/27 07:07:58;;;;;;;8.33;4.90;;;;;;;19.54;100.00;99250.09;5074444;28;20226;-81
2023/05/27 07:10:25;;;;;;;8.17;5.27;;;;;;;19.58;100.00;99256.59;5074353;28;20227;-81
2023/05/27 07:12:52;;;;;;;8.17;5.27;;;;;;;19.73;100.00;99259.34;5074680;28;20200;-81
2023/05/27 07:15:19;;;;;;;8.73;5.03;;;;;;;19.90;100.00;99267.91;5074086;28;20241;-81
2023/05/27 07:17:46;;;;;;;9.23;5.80;;;;;;;19.98;100.00;99260.09;5073993;28;20571;-80
2023/05/27 07:20:13;;;;;;;9.43;6.33;;;;;;;20.02;100.00;99263.97;5074155;28;20735;-81
2023/05/27 07:22:41;;;;;;;11.00;5.50;;;;;;;20.29;100.00;99267.13;5074071;28;20251;-81
2023/05/27 07:25:09;;;;;;;9.23;5.50;;;;;;;20.49;100.00;99262.31;5074289;28;20319;-81
2023/05/27 07:27:36;;;;;;;8.67;6.03;;;;;;;20.53;100.00;99266.22;5074102;28;20680;-81
2023/05/27 07:30:04;;;;;;;9.43;6.00;;;;;;;20.68;100.00;99261.09;5073972;28;20243;-81
2023/05/27 07:32:31;;;;;;;8.53;5.53;;;;;;;20.85;100.00;99267.00;5073809;28;20194;-81
2023/05/27 07:34:58;;;;;;;8.87;5.20;;;;;;;20.85;100.00;99267.81;5073370;28;20293;-81
2023/05/27 07:37:26;;;;;;;10.97;5.43;;;;;;;20.92;100.00;99268.75;5074077;28;20205;-81
2023/05/27 07:39:54;;;;;;;7.97;4.83;;;;;;;20.98;100.00;99273.25;5074016;28;20225;-81
2023/05/27 07:42:21;;;;;;;7.87;4.67;;;;;;;20.92;100.00;99273.97;5073320;28;20677;-81
2023/05/27 07:44:48;;;;;;;11.83;5.57;;;;;;;20.97;100.00;99270.81;5073876;28;20230;-81
2023/05/27 07:47:14;;;;;;;9.47;5.90;;;;;;;21.22;100.00;99269.66;5073651;28;20207;-80
2023/05/27 07:49:41;;;;;;;7.43;5.10;;;;;;;21.32;100.00;99269.44;5073265;28;20231;-80
2023/05/27 07:52:08;;;;;;;7.55;5.05;;;;;;;21.38;100.00;99279.16;5073752;28;20206;-81
2023/05/27 07:54:35;;;;;;;7.97;5.20;;;;;;;21.53;100.00;99275.78;5073701;28;20673;-81
2023/05/27 07:57:06;;;;;;;7.78;5.13;;;;;;;21.51;100.00;99282.97;5073516;28;20207;-81
2023/05/27 07:59:33;;;;;;;7.25;5.00;;;;;;;21.45;100.00;99285.28;5073331;28;20679;-80
2023/05/27 08:02:00;;;;;;;6.82;4.75;;;;;;;21.39;100.00;99285.97;5073780;28;20267;-81
2023/05/27 08:04:26;;;;;;;13.82;4.68;;;;;;;21.40;100.00;99286.78;5073045;28;20199;-80
2023/05/27 08:06:53;;;;;;;10.23;5.53;;;;;;;21.36;100.00;99281.13;5073636;28;20578;-80
2023/05/27 08:09:20;;;;;;;7.72;5.32;;;;;;;21.34;100.00;99283.06;5072141;28;20275;-81
2023/05/27 08:11:47;;;;;;;8.48;5.50;;;;;;;21.41;100.00;99289.22;5073348;28;20638;-81
2023/05/27 08:14:15;;;;;;;8.55;5.20;;;;;;;21.29;100.00;99298.38;5073803;28;20637;-81
2023/05/27 08:16:42;;;;;;;7.45;4.80;;;;;;;21.27;100.00;99308.16;5072683;28;20222;-81
2023/05/27 08:19:09;;;;;;;9.53;5.37;;;;;;;21.15;100.00;99309.56;5073945;28;20287;-81
2023/05/27 08:21:36;;;;;;;8.57;4.97;;;;;;;21.08;100.00;99311.22;5072914;28;20754;-81
2023/05/27 08:24:05;;;;;;;8.13;5.25;;;;;;;21.11;100.00;99309.06;5072885;28;20248;-81
2023/05/27 08:26:32;;;;;;;10.57;5.97;;;;;;;20.99;100.00;99305.25;5072888;28;20223;-81
2023/05/27 08:28:58;;;;;;;12.97;5.83;;;;;;;20.92;100.00;99305.16;5072874;28;20286;-81
2023/05/27 08:31:27;;;;;;;10.27;5.40;;;;;;;20.75;100.00;99293.22;5072839;28;20222;-81
2023/05/27 08:33:54;;;;;;;8.50;5.63;;;;;;;20.71;100.00;99297.13;5071898;28;20213;-80
2023/05/27 08:36:21;;;;;;;6.80;5.00;;;;;;;20.84;100.00;99297.41;5073193;28;20323;-81
2023/05/27 08:38:48;;;;;;;9.00;5.80;;;;;;;20.89;100.00;99300.28;5072666;28;20203;-80
2023/05/27 08:41:15;;;;;;;6.97;5.20;;;;;;;20.85;100.00;99299.00;5072325;28;20230;-81
2023/05/27 08:43:43;;;;;;;8.60;5.13;;;;;;;20.81;100.00;99295.16;5073037;28;20213;-81
2023/05/27 08:46:10;;;;;;;8.67;5.40;;;;;;;20.89;100.00;99299.50;5072352;28;20218;-81
2023/05/27 08:48:39;;;;;;;9.10;5.20;;;;;;;21.07;100.00;99289.63;5072400;28;20221;-81
2023/05/27 08:51:06;;;;;;;8.27;5.10;;;;;;;21.29;100.00;99290.56;5072638;28;20233;-81
2023/05/27 08:53:34;;;;;;;11.93;5.13;;;;;;;21.42;100.00;99290.03;5072539;28;20233;-81
2023/05/27 08:56:02;;;;;;;8.13;5.40;;;;;;;21.41;100.00;99289.22;5071942;28;20231;-81
2023/05/27 08:58:29;;;;;;;8.10;5.20;;;;;;;21.51;100.00;99288.97;5072349;28;20687;-81
2023/05/27 09:00:57;;;;;;;9.02;5.50;;;;;;;21.56;100.00;99297.06;5072546;28;20316;-81
2023/05/27 09:03:27;;;;;;;8.30;5.00;;;;;;;21.68;100.00;99280.03;5072301;28;20206;-81
2023/05/27 09:05:56;;;;;;;9.10;4.97;;;;;;;21.81;100.00;99287.19;5072175;28;20218;-81
2023/05/27 09:08:22;;;;;;;7.05;4.75;;;;;;;21.91;100.00;99289.56;5071955;28;20675;-81
2023/05/27 09:10:49;;;;;;;6.50;4.28;;;;;;;22.04;100.00;99288.94;5072593;28;20218;-81
2023/05/27 09:13:26;;;;;;;7.50;4.75;;;;;;;22.03;100.00;99287.31;5071989;28;20210;-80
2023/05/27 09:15:59;;;;;;;7.88;5.40;;;;;;;22.07;100.00;99288.56;5071899;28;20234;-81
2023/05/27 09:18:27;;;;;;;9.57;4.75;;;;;;;22.15;100.00;99280.66;5072208;28;20594;-81
2023/05/27 09:20:56;;;;;;;6.13;4.38;;;;;;;22.18;100.00;99285.53;5072236;28;20233;-81
2023/05/27 09:23:23;;;;;;;7.38;4.57;;;;;;;22.36;100.00;99283.34;5072373;28;20222;-80
2023/05/27 09:25:51;;;;;;;6.43;4.35;;;;;;;22.42;100.00;99281.81;5072269;28;20223;-81
2023/05/27 09:28:22;;;;;;;7.22;4.63;;;;;;;22.60;100.00;99284.03;5071625;28;20210;-81
2023/05/27 09:30:52;;;;;;;6.18;4.45;;;;;;;22.65;97.79;99275.66;5072558;28;20230;-81
2023/05/27 09:33:24;;;;;;;7.03;4.03;;;;;;;22.63;99.37;99277.66;5071488;28;20766;-80
2023/05/27 09:35:51;;;;;;;7.32;4.18;;;;;;;22.96;99.55;99268.41;5071267;28;20281;-81
2023/05/27 09:38:20;;;;;;;9.63;4.38;;;;;;;23.39;99.82;99270.19;5071529;28;20205;-81
2023/05/27 09:40:47;;;;;;;9.20;4.20;;;;;;;23.73;96.72;99272.84;5071317;28;20838;-81
2023/05/27 09:43:15;;;;;;;7.45;4.50;;;;;;;24.31;98.01;99266.50;5071767;28;20199;-81
2023/05/27 09:45:43;;;;;;;5.10;3.65;;;;;;;24.90;96.14;99255.44;5071452;28;20222;-80
2023/05/27 09:48:12;;;;;;;10.00;4.35;;;;;;;25.08;88.12;99258.25;5071352;28;20597;-80
2023/05/27 09:50:40;;;;;;;6.10;4.10;;;;;;;24.85;84.16;99252.59;5071238;28;20715;-80
2023/05/27 09:53:07;;;;;;;4.72;3.38;;;;;;;24.84;88.35;99245.75;5071589;28;20720;-81
2023/05/27 09:55:36;;;;;;;7.13;4.05;;;;;;;24.76;85.85;99245.97;5071127;28;20317;-80
2023/05/27 09:58:03;;;;;;;5.00;3.70;;;;;;;24.61;86.59;99251.34;5071673;28;20195;-80
2023/05/27 10:00:31;;;;;;;5.10;3.40;;;;;;;24.79;86.66;99248.16;5071450;28;20249;-80
2023/05/27 10:03:02;;;;;;;4.38;3.47;;;;;;;24.63;84.48;99242.28;5071078;28;20682;-80
2023/05/27 10:05:30;;;;;;;4.35;3.33;;;;;;;24.65;84.72;99252.56;5070863;28;20601;-80
2023/05/27 10:07:57;;;;;;;5.03;3.50;;;;;;;24.82;86.72;99245.16;5071219;28;20298;-80
2023/05/27 10:10:24;;;;;;;4.22;3.15;;;;;;;24.81;84.87;99240.91;5070921;28;20606;-80
2023/05/27 10:12:55;;;;;;;6.07;3.80;;;;;;;24.89;87.43;99238.09;5071013;28;20683;-80
2023/05/27 10:15:24;;;;;;;4.85;3.55;;;;;;;25.03;88.71;99237.13;5071303;28;20722;-80
2023/05/27 10:17:54;;;;;;;8.88;3.63;;;;;;;25.14;85.99;99234.94;5071119;28;20199;-80
2023/05/27 10:20:27;;;;;;;5.60;3.58;;;;;;;25.07;86.19;99230.50;5071039;28;20245;-80
2023/05/27 10:22:54;;;;;;;6.00;3.20;;;;;;;25.26;87.58;99233.31;5070938;28;20206;-80
2023/05/27 10:25:21;;;;;;;5.07;3.63;;;;;;;24.97;84.30;99230.06;5070636;28;20593;-80
2023/05/27 10:27:49;;;;;;;8.15;3.42;;;;;;;25.21;84.65;99230.50;5070715;28;20302;-81
2023/05/27 10:30:17;;;;;;;6.28;3.15;;;;;;;25.19;84.10;99229.88;5070637;28;20234;-80
2023/05/27 10:32:45;;;;;;;5.10;3.63;;;;;;;25.30;89.00;99224.06;5069984;28;20202;-81
2023/05/27 10:35:13;;;;;;;3.90;2.97;;;;;;;25.31;81.88;99225.69;5070323;28;20235;-80
2023/05/27 10:37:42;;;;;;;6.25;3.00;;;;;;;25.63;81.51;99217.97;5070618;28;20641;-80
2023/05/27 10:40:10;;;;;;;5.38;3.45;;;;;;;25.86;80.86;99223.59;5070134;28;20623;-80
2023/05/27 10:42:37;;;;;;;3.97;3.03;;;;;;;26.03;81.67;99223.09;5070624;28;20297;-81
2023/05/27 10:45:10;;;;;;;5.50;3.30;;;;;;;26.04;75.84;99219.47;5070286;28;20276;-80
2023/05/27 10:47:39;;;;;;;5.13;2.97;;;;;;;26.32;72.57;99211.28;5070538;28;20286;-81
2023/05/27 10:50:13;;;;;;;3.65;2.95;;;;;;;26.61;70.70;99199.44;5070472;28;20230;-81
2023/05/27 10:52:42;;;;;;;3.92;3.28;;;;;;;26.86;72.14;99208.13;5070674;28;20202;-80
2023/05/27 10:55:09;;;;;;;5.18;3.75;;;;;;;27.13;73.58;99197.41;5070902;28;20264;-80
2023/05/27 10:57:36;;;;;;;4.40;3.05;;;;;;;27.01;73.99;99194.69;5070290;28;20575;-80
2023/05/27 11:00:08;;;;;;;5.63;3.00;;;;;;;27.31;69.01;99183.53;5070745;28;20305;-80
2023/05/27 11:02:36;;;;;;;4.20;3.00;;;;;;;27.15;69.58;99179.66;5070374;28;20218;-81
2023/05/27 11:05:11;;;;;;;3.35;2.75;;;;;;;27.14;72.03;99178.03;5070415;28;20585;-80
2023/05/27 11:07:40;;;;;;;2.83;2.38;;;;;;;27.44;71.42;99172.09;5070624;28;20625;-80
2023/05/27 11:10:08;;;;;;;3.92;2.85;;;;;;;27.63;70.40;99162.38;5070158;28;20223;-80
2023/05/27 11:12:35;;;;;;;5.50;2.53;;;;;;;27.70;62.64;99171.81;5070553;28;20203;-80
2023/05/27 11:15:04;;;;;;;3.22;2.60;;;;;;;27.97;65.63;99171.50;5070505;28;20275;-80
2023/05/27 11:17:31;;;;;;;3.30;2.70;;;;;;;27.95;59.51;99169.09;5070723;28;20698;-80
2023/05/27 11:19:58;;;;;;;4.10;2.85;;;;;;;28.10;60.34;99157.38;5070418;28;20227;-80
2023/05/27 11:22:26;;;;;;;3.40;2.53;;;;;;;28.27;57.64;99155.72;5070002;28;20228;-80
2023/05/27 11:24:57;;;;;;;3.28;2.50;;;;;;;28.42;56.80;99152.69;5070265;28;20249;-80
2023/05/27 11:27:24;;;;;;;3.40;2.70;;;;;;;28.49;51.31;99157.88;5069718;28;20202;-80
2023/05/27 11:29:52;;;;;;;3.15;2.30;;;;;;;28.50;51.46;99144.47;5070456;28;20718;-80